createdAt,value
2018-05-26T00:00:33.559Z,26.40
2018-05-26T00:02:59.727Z,26.40
2018-05-26T00:05:25.899Z,26.40
2018-05-26T00:07:52.059Z,26.50
2018-05-26T00:10:18.199Z,26.50
2018-05-26T00:12:44.368Z,26.30
2018-05-26T00:15:10.528Z,26.30
2018-05-26T00:17:36.674Z,26.20
2018-05-26T00:20:03.577Z,26.20
2018-05-26T00:22:29.734Z,26.20
2018-05-26T00:24:55.922Z,26.30
2018-05-26T00:27:22.071Z,26.10
2018-05-26T00:29:48.238Z,26.10
2018-05-26T00:32:14.447Z,26.10
2018-05-26T00:34:40.591Z,26.00
2018-05-26T00:37:06.741Z,26.00
2018-05-26T00:39:32.881Z,26.00
2018-05-26T00:41:59.019Z,25.90
2018-05-26T00:44:25.171Z,26.00
2018-05-26T00:46:51.324Z,26.00
2018-05-26T00:52:11.490Z,25.90
2018-05-26T00:54:37.655Z,25.80
2018-05-26T00:57:03.816Z,25.80
2018-05-26T00:59:29.999Z,25.80
2018-05-26T01:01:56.133Z,25.60
2018-05-26T01:04:22.374Z,25.70
2018-05-26T01:06:48.527Z,25.70
2018-05-26T01:09:14.700Z,25.70
2018-05-26T01:11:40.867Z,25.20
2018-05-26T01:14:06.998Z,25.50
2018-05-26T01:16:33.127Z,25.70
2018-05-26T01:18:59.277Z,25.50
2018-05-26T01:21:25.426Z,25.60
2018-05-26T01:23:51.579Z,25.70
2018-05-26T01:26:17.767Z,25.60
2018-05-26T01:28:43.902Z,25.50
2018-05-26T01:31:10.038Z,25.60
2018-05-26T01:33:36.189Z,25.50
2018-05-26T01:36:02.343Z,25.50
2018-05-26T01:38:28.489Z,25.50
2018-05-26T01:40:54.638Z,25.40
2018-05-26T01:43:21.518Z,25.50
2018-05-26T01:45:47.662Z,25.50
2018-05-26T01:48:13.810Z,25.50
2018-05-26T01:50:39.966Z,25.50
2018-05-26T01:53:06.111Z,25.30
2018-05-26T01:55:32.251Z,23.50
2018-05-26T01:57:58.374Z,25.30
2018-05-26T02:00:24.531Z,25.30
2018-05-26T02:02:50.685Z,25.30
2018-05-26T02:05:16.843Z,25.30
2018-05-26T02:07:42.995Z,25.40
2018-05-26T02:10:09.127Z,25.40
2018-05-26T02:12:36.053Z,25.30
2018-05-26T02:15:02.215Z,25.30
2018-05-26T02:17:28.340Z,25.30
2018-05-26T02:19:54.495Z,25.20
2018-05-26T02:22:20.637Z,25.50
2018-05-26T02:24:46.790Z,25.30
2018-05-26T02:27:12.934Z,25.10
2018-05-26T02:29:39.107Z,25.30
2018-05-26T02:32:05.991Z,25.10
2018-05-26T02:34:32.142Z,25.00
2018-05-26T02:36:58.294Z,25.10
2018-05-26T02:39:24.470Z,25.00
2018-05-26T02:41:50.627Z,24.90
2018-05-26T02:44:16.767Z,24.90
2018-05-26T02:46:42.936Z,24.80
2018-05-26T02:49:09.078Z,24.20
2018-05-26T02:51:35.980Z,24.90
2018-05-26T02:54:02.135Z,24.90
2018-05-26T02:56:28.302Z,25.00
2018-05-26T02:58:54.443Z,24.90
2018-05-26T03:01:20.579Z,24.90
2018-05-26T03:03:46.666Z,24.90
2018-05-26T03:06:19.018Z,25.10
2018-05-26T03:08:51.283Z,25.10
2018-05-26T03:11:23.615Z,24.70
2018-05-26T03:13:55.973Z,25.00
2018-05-26T03:16:28.582Z,24.70
2018-05-26T03:18:54.791Z,23.00
2018-05-26T03:21:20.965Z,24.70
2018-05-26T03:23:47.117Z,24.70
2018-05-26T03:26:13.287Z,24.70
2018-05-26T03:28:40.184Z,24.60
2018-05-26T03:31:06.338Z,24.70
2018-05-26T03:33:32.483Z,24.60
2018-05-26T03:35:58.644Z,24.40
2018-05-26T03:38:24.785Z,24.50
2018-05-26T03:40:50.910Z,24.50
2018-05-26T03:43:17.065Z,24.40
2018-05-26T03:45:43.209Z,24.60
2018-05-26T03:48:09.359Z,24.50
2018-05-26T03:50:35.515Z,24.50
2018-05-26T03:53:01.653Z,24.40
2018-05-26T03:55:47.089Z,24.40
2018-05-26T03:58:31.801Z,24.40
2018-05-26T04:00:57.897Z,24.40
2018-05-26T04:03:24.037Z,24.40
2018-05-26T04:05:50.772Z,24.40
2018-05-26T04:08:16.851Z,24.40
2018-05-26T04:10:43.010Z,24.30
2018-05-26T04:13:09.149Z,24.40
2018-05-26T04:15:35.316Z,24.40
2018-05-26T04:18:01.519Z,24.50
2018-05-26T04:20:27.667Z,24.50
2018-05-26T04:22:53.806Z,24.50
2018-05-26T04:25:19.952Z,24.50
2018-05-26T04:27:46.087Z,24.40
2018-05-26T04:30:12.253Z,24.60
2018-05-26T04:32:38.405Z,24.50
2018-05-26T04:35:04.568Z,24.40
2018-05-26T04:37:31.523Z,24.50
2018-05-26T04:39:57.938Z,23.00
2018-05-26T04:42:24.840Z,24.70
2018-05-26T04:44:50.990Z,24.60
2018-05-26T04:47:17.127Z,24.80
2018-05-26T04:49:43.306Z,24.70
2018-05-26T04:52:10.204Z,24.80
2018-05-26T04:54:36.407Z,24.80
2018-05-26T04:57:02.551Z,24.90
2018-05-26T04:59:28.703Z,24.80
2018-05-26T05:01:54.845Z,24.90
2018-05-26T05:04:20.987Z,24.80
2018-05-26T05:06:47.180Z,24.90
2018-05-26T05:09:13.384Z,25.00
2018-05-26T05:11:39.523Z,25.00
2018-05-26T05:14:05.667Z,25.00
2018-05-26T05:16:31.813Z,25.00
2018-05-26T05:18:57.973Z,25.10
2018-05-26T05:21:24.135Z,25.20
2018-05-26T05:23:50.276Z,25.10
2018-05-26T05:26:17.160Z,25.20
2018-05-26T05:28:43.301Z,25.20
2018-05-26T05:31:09.439Z,25.40
2018-05-26T05:33:35.605Z,25.50
2018-05-26T05:36:01.778Z,25.50
2018-05-26T05:38:27.937Z,25.40
2018-05-26T05:40:54.083Z,25.60
2018-05-26T05:43:20.243Z,25.80
2018-05-26T05:45:47.130Z,25.80
2018-05-26T05:48:13.315Z,25.70
2018-05-26T05:50:39.505Z,25.90
2018-05-26T05:53:06.465Z,26.10
2018-05-26T05:55:32.613Z,26.00
2018-05-26T05:57:58.788Z,26.10
2018-05-26T06:00:24.942Z,26.30
2018-05-26T06:02:51.073Z,26.30
2018-05-26T06:05:17.221Z,26.30
2018-05-26T06:10:20.147Z,26.80
2018-05-26T06:12:46.305Z,25.90
2018-05-26T06:15:12.652Z,27.00
2018-05-26T06:17:38.785Z,25.60
2018-05-26T06:20:04.947Z,27.00
2018-05-26T06:22:31.098Z,26.50
2018-05-26T06:24:57.237Z,27.00
2018-05-26T06:27:23.404Z,27.20
2018-05-26T06:29:49.594Z,27.40
2018-05-26T06:32:15.757Z,27.40
2018-05-26T06:34:41.923Z,27.30
2018-05-26T06:37:08.850Z,27.50
2018-05-26T06:39:35.032Z,27.50
2018-05-26T06:42:01.308Z,27.70
2018-05-26T06:44:27.485Z,27.70
2018-05-26T06:46:53.642Z,27.90
2018-05-26T06:49:19.850Z,28.00
2018-05-26T06:51:46.059Z,28.00
2018-05-26T06:54:12.935Z,28.10
2018-05-26T06:56:39.095Z,28.10
2018-05-26T06:59:05.265Z,28.30
2018-05-26T07:01:31.408Z,28.40
2018-05-26T07:03:57.568Z,28.50
2018-05-26T07:06:23.751Z,28.80
2018-05-26T07:08:49.955Z,28.90
2018-05-26T07:11:16.196Z,29.00
2018-05-26T07:13:42.438Z,29.10
2018-05-26T07:16:08.622Z,29.10
2018-05-26T07:18:34.774Z,29.10
2018-05-26T07:21:00.918Z,29.30
2018-05-26T07:23:27.114Z,29.40
2018-05-26T07:25:53.281Z,29.40
2018-05-26T07:28:19.490Z,29.50
2018-05-26T07:30:45.642Z,29.50
2018-05-26T07:33:11.826Z,29.70
2018-05-26T07:35:37.990Z,30.00
2018-05-26T07:38:04.154Z,30.40
2018-05-26T07:40:30.327Z,30.60
2018-05-26T07:42:56.514Z,31.00
2018-05-26T07:45:22.767Z,31.40
2018-05-26T07:47:49.458Z,31.70
2018-05-26T07:50:15.611Z,31.90
2018-05-26T07:52:41.766Z,32.10
2018-05-26T07:55:07.950Z,32.40
2018-05-26T07:57:34.846Z,32.80
2018-05-26T08:00:00.989Z,32.70
2018-05-26T08:02:27.152Z,32.90
2018-05-26T08:04:53.383Z,33.30
2018-05-26T08:07:20.315Z,33.60
2018-05-26T08:09:46.488Z,33.60
2018-05-26T08:12:12.688Z,33.60
2018-05-26T08:14:38.836Z,33.90
2018-05-26T08:17:05.845Z,34.20
2018-05-26T08:19:32.036Z,34.20
2018-05-26T08:21:58.180Z,34.40
2018-05-26T08:24:24.328Z,34.60
2018-05-26T08:26:50.651Z,34.70
2018-05-26T08:29:16.814Z,34.80
2018-05-26T08:31:42.955Z,34.60
2018-05-26T08:34:09.126Z,34.90
2018-05-26T08:36:35.286Z,35.20
2018-05-26T08:39:01.448Z,35.40
2018-05-26T08:41:27.620Z,35.40
2018-05-26T08:43:53.779Z,35.70
2018-05-26T08:46:19.938Z,35.70
2018-05-26T08:48:46.119Z,36.00
2018-05-26T08:51:12.280Z,35.80
2018-05-26T08:53:38.482Z,36.00
2018-05-26T08:56:04.646Z,36.10
2018-05-26T08:58:30.805Z,36.40
2018-05-26T09:00:56.943Z,36.60
2018-05-26T09:03:23.077Z,36.80
2018-05-26T09:05:49.206Z,37.20
2018-05-26T09:08:15.358Z,37.30
2018-05-26T09:10:41.495Z,37.10
2018-05-26T09:13:07.647Z,37.10
2018-05-26T09:15:33.832Z,37.20
2018-05-26T09:17:59.983Z,37.20
2018-05-26T09:20:26.123Z,37.30
2018-05-26T09:22:52.298Z,37.50
2018-05-26T09:25:19.514Z,37.60
2018-05-26T09:27:46.387Z,37.90
2018-05-26T09:30:12.567Z,37.90
2018-05-26T09:32:38.718Z,38.00
2018-05-26T09:35:05.610Z,38.40
2018-05-26T09:37:31.793Z,38.40
2018-05-26T09:39:57.942Z,38.60
2018-05-26T09:42:24.147Z,38.40
2018-05-26T09:44:50.300Z,38.20
2018-05-26T09:47:17.197Z,38.80
2018-05-26T09:49:43.382Z,38.80
2018-05-26T09:52:09.688Z,38.90
2018-05-26T09:54:36.015Z,39.00
2018-05-26T09:57:02.650Z,38.90
2018-05-26T09:59:29.299Z,39.00
2018-05-26T10:01:55.895Z,39.10
2018-05-26T10:04:22.297Z,39.10
2018-05-26T10:06:49.317Z,39.10
2018-05-26T10:09:15.553Z,39.00
2018-05-26T10:11:41.710Z,39.40
2018-05-26T10:14:07.858Z,39.60
2018-05-26T10:16:34.028Z,40.10
2018-05-26T10:19:00.198Z,40.40
2018-05-26T10:21:26.386Z,40.40
2018-05-26T10:23:52.551Z,40.50
2018-05-26T10:26:19.105Z,40.80
2018-05-26T10:28:45.571Z,40.40
2018-05-26T10:31:11.709Z,40.60
2018-05-26T10:33:37.856Z,41.00
2018-05-26T10:36:04.758Z,41.60
2018-05-26T10:38:30.905Z,41.50
2018-05-26T10:40:57.068Z,41.80
2018-05-26T10:43:23.252Z,41.90
2018-05-26T10:46:07.732Z,42.10
2018-05-26T10:48:33.859Z,42.20
2018-05-26T10:51:00.105Z,42.20
2018-05-26T10:53:26.246Z,41.90
2018-05-26T10:55:53.351Z,42.00
2018-05-26T10:58:19.450Z,41.90
2018-05-26T11:00:46.343Z,42.10
2018-05-26T11:03:12.503Z,42.10
2018-05-26T11:05:38.680Z,42.10
2018-05-26T11:08:04.824Z,42.40
2018-05-26T11:10:30.975Z,42.80
2018-05-26T11:12:57.144Z,42.90
2018-05-26T11:15:24.090Z,42.90
2018-05-26T11:17:50.413Z,42.90
2018-05-26T11:20:16.408Z,43.10
2018-05-26T11:22:42.520Z,43.30
2018-05-26T11:25:08.707Z,43.50
2018-05-26T11:27:35.095Z,43.40
2018-05-26T11:30:01.230Z,43.70
2018-05-26T11:32:27.406Z,43.80
2018-05-26T11:34:53.545Z,43.90
2018-05-26T11:37:19.695Z,43.80
2018-05-26T11:39:45.823Z,43.70
2018-05-26T11:42:11.991Z,43.70
2018-05-26T11:44:38.202Z,43.90
2018-05-26T11:47:04.370Z,43.80
2018-05-26T11:49:30.547Z,43.70
2018-05-26T11:51:56.729Z,44.00
2018-05-26T11:54:22.863Z,44.10
2018-05-26T11:56:49.015Z,44.30
2018-05-26T11:59:15.835Z,44.30
2018-05-26T12:01:42.004Z,44.30
2018-05-26T12:04:08.188Z,44.50
2018-05-26T12:06:34.388Z,44.70
2018-05-26T12:09:00.521Z,45.00
2018-05-26T12:11:28.187Z,45.20
2018-05-26T12:13:54.314Z,45.20
2018-05-26T12:16:20.448Z,45.10
2018-05-26T12:18:46.611Z,44.70
2018-05-26T12:21:12.767Z,44.60
2018-05-26T12:23:38.890Z,44.80
2018-05-26T12:26:05.078Z,45.20
2018-05-26T12:28:31.280Z,45.20
2018-05-26T12:30:57.394Z,45.40
2018-05-26T12:33:23.559Z,45.60
2018-05-26T12:35:49.693Z,45.40
2018-05-26T12:38:15.823Z,45.40
2018-05-26T12:40:41.951Z,45.70
2018-05-26T12:43:08.095Z,45.50
2018-05-26T12:45:34.249Z,45.40
2018-05-26T12:48:01.122Z,45.30
2018-05-26T12:50:27.248Z,45.30
2018-05-26T12:52:53.683Z,45.10
2018-05-26T12:55:20.554Z,44.90
2018-05-26T12:57:46.691Z,44.90
2018-05-26T13:00:12.839Z,45.00
2018-05-26T13:02:38.972Z,44.90
2018-05-26T13:05:05.128Z,44.80
2018-05-26T13:07:31.261Z,44.40
2018-05-26T13:09:57.395Z,44.70
2018-05-26T13:12:23.512Z,45.10
2018-05-26T13:14:49.643Z,45.10
2018-05-26T13:17:15.815Z,45.20
2018-05-26T13:19:41.976Z,45.30
2018-05-26T13:22:08.146Z,44.90
2018-05-26T13:24:34.278Z,44.20
2018-05-26T13:27:00.433Z,44.40
2018-05-26T13:29:26.945Z,44.60
2018-05-26T13:31:53.055Z,44.70
2018-05-26T13:34:19.197Z,44.70
2018-05-26T13:36:45.351Z,44.80
2018-05-26T13:39:11.486Z,44.90
2018-05-26T13:41:37.657Z,45.00
2018-05-26T13:44:03.810Z,45.20
2018-05-26T13:46:30.009Z,45.00
2018-05-26T13:48:56.177Z,45.10
2018-05-26T13:51:22.373Z,45.20
2018-05-26T13:53:48.527Z,45.50
2018-05-26T13:56:14.980Z,45.90
2018-05-26T13:58:41.154Z,45.90
2018-05-26T14:01:07.354Z,45.90
2018-05-26T14:03:33.570Z,46.00
2018-05-26T14:05:59.762Z,46.00
2018-05-26T14:08:26.703Z,46.00
2018-05-26T14:10:52.918Z,45.90
2018-05-26T14:13:19.164Z,45.90
2018-05-26T14:15:46.129Z,45.60
2018-05-26T14:18:27.287Z,45.60
2018-05-26T14:20:53.566Z,45.70
2018-05-26T14:23:20.715Z,45.30
2018-05-26T14:25:46.911Z,45.40
2018-05-26T14:28:13.155Z,45.40
2018-05-26T14:30:40.113Z,45.80
2018-05-26T14:33:06.348Z,45.70
2018-05-26T14:35:32.574Z,46.00
2018-05-26T14:37:58.787Z,46.10
2018-05-26T14:40:24.999Z,46.30
2018-05-26T14:42:51.202Z,46.20
2018-05-26T14:45:17.387Z,46.20
2018-05-26T14:47:43.582Z,46.10
2018-05-26T14:50:09.746Z,46.30
2018-05-26T14:52:35.972Z,46.40
2018-05-26T14:55:02.163Z,46.50
2018-05-26T14:57:28.450Z,46.20
2018-05-26T14:59:54.653Z,45.80
2018-05-26T15:02:20.845Z,45.60
2018-05-26T15:04:47.056Z,45.40
2018-05-26T15:07:13.240Z,45.60
2018-05-26T15:09:39.434Z,45.80
2018-05-26T15:12:05.650Z,45.80
2018-05-26T15:14:31.851Z,44.60
2018-05-26T15:16:58.015Z,45.90
2018-05-26T15:19:24.194Z,46.00
2018-05-26T15:21:50.410Z,46.30
2018-05-26T15:24:16.587Z,46.30
2018-05-26T15:26:42.794Z,46.10
2018-05-26T15:29:09.746Z,45.90
2018-05-26T15:31:35.938Z,45.80
2018-05-26T15:34:02.916Z,46.00
2018-05-26T15:36:29.081Z,46.00
2018-05-26T15:38:55.233Z,46.40
2018-05-26T15:41:21.495Z,46.00
2018-05-26T15:43:47.675Z,46.40
2018-05-26T15:46:13.879Z,46.00
2018-05-26T15:48:40.062Z,45.90
2018-05-26T15:51:06.279Z,46.10
2018-05-26T15:53:32.551Z,46.10
2018-05-26T15:55:58.746Z,46.00
2018-05-26T15:58:24.894Z,46.00
2018-05-26T16:00:51.104Z,45.90
2018-05-26T16:03:17.290Z,45.80
2018-05-26T16:05:43.490Z,45.80
2018-05-26T16:08:09.669Z,45.60
2018-05-26T16:10:35.917Z,45.50
2018-05-26T16:13:02.146Z,45.40
2018-05-26T16:15:28.355Z,45.30
2018-05-26T16:17:54.545Z,45.10
2018-05-26T16:20:20.764Z,45.00
2018-05-26T16:22:47.682Z,45.30
2018-05-26T16:25:13.948Z,45.30
2018-05-26T16:27:40.140Z,45.30
2018-05-26T16:30:06.396Z,45.10
2018-05-26T16:32:32.622Z,45.10
2018-05-26T16:34:58.834Z,45.00
2018-05-26T16:37:25.008Z,45.10
2018-05-26T16:39:51.236Z,45.40
2018-05-26T16:42:17.455Z,45.40
2018-05-26T16:44:43.684Z,45.10
2018-05-26T16:47:09.894Z,45.10
2018-05-26T16:49:36.076Z,45.10
2018-05-26T16:52:02.348Z,45.00
2018-05-26T16:54:28.547Z,44.80
2018-05-26T16:56:54.804Z,44.80
2018-05-26T16:59:21.803Z,44.80
2018-05-26T17:01:48.020Z,44.70
2018-05-26T17:04:14.948Z,44.40
2018-05-26T17:06:42.630Z,44.40
2018-05-26T17:09:08.877Z,44.30
2018-05-26T17:11:35.083Z,44.20
2018-05-26T17:14:01.283Z,44.40
2018-05-26T17:16:27.494Z,44.20
2018-05-26T17:18:53.719Z,44.20
2018-05-26T17:21:21.106Z,44.00
2018-05-26T17:23:47.316Z,44.00
2018-05-26T17:26:13.543Z,44.00
2018-05-26T17:28:39.732Z,43.60
2018-05-26T17:31:05.960Z,43.80
2018-05-26T17:33:32.218Z,43.70
2018-05-26T17:35:58.446Z,43.60
2018-05-26T17:38:24.667Z,43.50
2018-05-26T17:40:50.977Z,43.10
2018-05-26T17:43:17.195Z,43.10
2018-05-26T17:45:43.457Z,43.10
2018-05-26T17:48:09.622Z,42.90
2018-05-26T17:50:37.432Z,42.70
2018-05-26T17:53:03.648Z,42.70
2018-05-26T17:55:29.866Z,42.30
2018-05-26T17:57:57.592Z,42.20
2018-05-26T18:00:23.782Z,42.30
2018-05-26T18:02:50.685Z,42.20
2018-05-26T18:05:16.899Z,42.20
2018-05-26T18:07:43.050Z,41.90
2018-05-26T18:10:09.205Z,41.80
2018-05-26T18:12:35.363Z,41.60
2018-05-26T18:15:02.261Z,41.50
2018-05-26T18:17:28.410Z,41.40
2018-05-26T18:19:54.554Z,41.30
2018-05-26T18:22:20.710Z,40.60
2018-05-26T18:24:46.887Z,40.70
2018-05-26T18:27:13.084Z,40.50
2018-05-26T18:29:40.036Z,40.10
2018-05-26T18:32:06.195Z,40.00
2018-05-26T18:34:32.363Z,39.90
2018-05-26T18:36:58.536Z,39.80
2018-05-26T18:39:25.458Z,39.40
2018-05-26T18:41:51.640Z,39.40
2018-05-26T18:44:17.795Z,39.20
2018-05-26T18:46:43.990Z,39.10
2018-05-26T18:49:10.166Z,39.00
2018-05-26T18:51:37.266Z,38.70
2018-05-26T18:54:03.462Z,38.60
2018-05-26T18:56:29.658Z,38.30
2018-05-26T18:58:55.865Z,38.10
2018-05-26T19:01:22.800Z,37.70
2018-05-26T19:03:49.753Z,37.30
2018-05-26T19:06:16.687Z,37.10
2018-05-26T19:08:43.587Z,37.00
2018-05-26T19:11:09.764Z,36.90
2018-05-26T19:13:35.938Z,36.60
2018-05-26T19:16:02.134Z,36.50
2018-05-26T19:18:28.326Z,36.30
2018-05-26T19:20:54.521Z,36.00
2018-05-26T19:23:20.658Z,35.80
2018-05-26T19:25:46.808Z,35.60
2018-05-26T19:28:12.975Z,35.50
2018-05-26T19:30:39.151Z,35.30
2018-05-26T19:33:05.342Z,35.00
2018-05-26T19:35:31.514Z,35.10
2018-05-26T19:37:58.422Z,34.60
2018-05-26T19:40:24.609Z,34.60
2018-05-26T19:42:50.812Z,34.60
2018-05-26T19:45:16.979Z,34.60
2018-05-26T19:47:43.198Z,34.30
2018-05-26T19:50:09.457Z,34.10
2018-05-26T19:52:35.619Z,34.10
2018-05-26T19:55:01.791Z,33.90
2018-05-26T19:57:28.720Z,33.60
2018-05-26T19:59:54.915Z,33.60
2018-05-26T20:02:21.068Z,33.40
2018-05-26T20:04:47.252Z,33.20
2018-05-26T20:07:13.429Z,33.00
2018-05-26T20:09:39.605Z,33.00
2018-05-26T20:12:05.843Z,32.90
2018-05-26T20:14:31.986Z,32.80
2018-05-26T20:16:58.157Z,32.60
2018-05-26T20:19:24.349Z,32.70
2018-05-26T20:21:50.524Z,32.60
2018-05-26T20:24:16.738Z,32.50
2018-05-26T20:26:42.891Z,32.30
2018-05-26T20:29:09.089Z,32.20
2018-05-26T20:31:35.279Z,32.10
2018-05-26T20:34:01.534Z,32.10
2018-05-26T20:36:27.731Z,31.90
2018-05-26T20:38:53.905Z,31.90
2018-05-26T20:41:20.100Z,31.80
2018-05-26T20:43:46.281Z,31.70
2018-05-26T20:46:13.209Z,31.50
2018-05-26T20:48:39.403Z,31.40
2018-05-26T20:51:05.566Z,31.40
2018-05-26T20:53:31.791Z,31.20
2018-05-26T20:55:58.759Z,31.20
2018-05-26T20:58:24.902Z,31.20
2018-05-26T21:00:52.138Z,31.00
2018-05-26T21:03:18.300Z,31.00
2018-05-26T21:05:44.475Z,31.00
2018-05-26T21:08:10.655Z,29.50
2018-05-26T21:10:37.585Z,30.70
2018-05-26T21:13:03.762Z,30.60
2018-05-26T21:15:29.967Z,30.70
2018-05-26T21:17:56.881Z,30.60
2018-05-26T21:20:23.089Z,30.50
2018-05-26T21:25:41.807Z,30.60
2018-05-26T21:28:07.964Z,30.30
2018-05-26T21:30:34.143Z,30.20
2018-05-26T21:33:00.319Z,30.20
2018-05-26T21:35:26.462Z,30.00
2018-05-26T21:37:52.627Z,30.10
2018-05-26T21:40:18.804Z,30.10
2018-05-26T21:42:44.972Z,30.10
2018-05-26T21:45:11.138Z,30.00
2018-05-26T21:47:37.298Z,30.00
2018-05-26T21:50:03.448Z,30.00
2018-05-26T21:52:30.392Z,29.90
2018-05-26T21:54:56.479Z,29.90
2018-05-26T21:57:22.642Z,29.80
2018-05-26T21:59:48.797Z,29.80
2018-05-26T22:02:14.960Z,29.60
2018-05-26T22:04:41.134Z,29.60
2018-05-26T22:07:07.282Z,29.60
2018-05-26T22:09:34.188Z,29.50
2018-05-26T22:12:00.342Z,29.50
2018-05-26T22:14:26.493Z,29.50
2018-05-26T22:16:52.625Z,29.40
2018-05-26T22:19:18.779Z,29.40
2018-05-26T22:21:44.914Z,29.40
2018-05-26T22:24:11.074Z,29.40
2018-05-26T22:26:37.250Z,27.60
2018-05-26T22:29:03.426Z,29.00
2018-05-26T22:31:29.601Z,29.00
2018-05-26T22:33:55.754Z,29.00
2018-05-26T22:36:21.886Z,28.90
2018-05-26T22:38:48.057Z,28.70
2018-05-26T22:41:14.206Z,28.80
2018-05-26T22:43:40.351Z,28.70
2018-05-26T22:46:06.551Z,28.60
2018-05-26T22:48:32.711Z,28.60
2018-05-26T22:50:58.857Z,28.50
2018-05-26T22:53:25.016Z,28.50
2018-05-26T22:55:51.907Z,28.30
2018-05-26T22:58:18.051Z,28.30
2018-05-26T23:00:44.182Z,28.10
2018-05-26T23:03:10.348Z,28.20
2018-05-26T23:05:36.503Z,28.10
2018-05-26T23:08:02.646Z,28.00
2018-05-26T23:10:28.798Z,28.00
2018-05-26T23:12:54.926Z,28.10
2018-05-26T23:15:21.087Z,28.20
2018-05-26T23:17:47.243Z,28.00
2018-05-26T23:20:14.132Z,28.00
2018-05-26T23:22:40.285Z,28.00
2018-05-26T23:25:06.421Z,27.90
2018-05-26T23:27:32.559Z,27.90
2018-05-26T23:29:58.703Z,27.90
2018-05-26T23:32:24.836Z,27.70
2018-05-26T23:34:50.971Z,27.80
2018-05-26T23:37:17.150Z,27.90
2018-05-26T23:39:43.362Z,26.20
2018-05-26T23:42:09.512Z,27.90
2018-05-26T23:44:35.661Z,28.00
2018-05-26T23:47:01.798Z,27.80
2018-05-26T23:49:27.937Z,27.70
2018-05-26T23:51:54.861Z,27.70
2018-05-26T23:54:20.998Z,27.60
2018-05-26T23:56:47.132Z,27.60
2018-05-26T23:59:13.267Z,27.60
